createdAt,value
2022-11-14T00:01:40.594Z,13.10
2022-11-14T00:04:29.760Z,15.90
2022-11-14T00:07:17.597Z,18.10
2022-11-14T00:10:05.667Z,14.20
2022-11-14T00:12:52.617Z,12.40
2022-11-14T00:15:39.847Z,14.90
2022-11-14T00:18:27.111Z,17.00
2022-11-14T00:21:14.067Z,14.60
2022-11-14T00:24:01.339Z,15.30
2022-11-14T00:26:48.790Z,14.00
2022-11-14T00:29:36.057Z,13.50
2022-11-14T00:32:23.468Z,15.50
2022-11-14T00:35:10.716Z,14.60
2022-11-14T00:37:57.599Z,14.90
2022-11-14T00:40:44.393Z,14.80
2022-11-14T00:43:31.634Z,16.80
2022-11-14T00:46:19.422Z,15.50
2022-11-14T00:49:06.522Z,15.90
2022-11-14T00:51:53.253Z,17.90
2022-11-14T00:54:40.512Z,19.80
2022-11-14T00:57:27.460Z,15.10
2022-11-14T01:00:15.458Z,16.90
2022-11-14T01:03:03.011Z,18.00
2022-11-14T01:05:52.356Z,15.20
2022-11-14T01:08:39.179Z,15.00
2022-11-14T01:11:26.437Z,13.70
2022-11-14T01:14:13.358Z,12.80
2022-11-14T01:17:00.784Z,12.00
2022-11-14T01:19:47.521Z,13.80
2022-11-14T01:22:34.412Z,12.70
2022-11-14T01:25:21.383Z,11.50
2022-11-14T01:28:26.880Z,14.50
2022-11-14T01:31:21.986Z,11.30
2022-11-14T01:34:10.140Z,12.40
2022-11-14T01:37:50.937Z,11.10
2022-11-14T01:40:43.825Z,11.20
2022-11-14T01:43:39.694Z,9.30
2022-11-14T01:46:37.092Z,11.50
2022-11-14T01:49:39.915Z,10.10
2022-11-14T01:52:36.857Z,9.70
2022-11-14T01:55:23.925Z,9.20
2022-11-14T01:58:11.050Z,10.10
2022-11-14T02:00:58.579Z,11.70
2022-11-14T02:03:50.376Z,11.70
2022-11-14T02:06:38.866Z,10.00
2022-11-14T02:09:28.114Z,9.20
2022-11-14T02:12:18.827Z,9.00
2022-11-14T02:15:06.241Z,9.90
2022-11-14T02:17:53.217Z,8.90
2022-11-14T02:20:43.563Z,10.10
2022-11-14T02:23:32.851Z,10.30
2022-11-14T02:26:22.650Z,11.70
2022-11-14T02:29:11.681Z,16.50
2022-11-14T02:31:59.271Z,14.40
2022-11-14T02:34:46.340Z,13.30
2022-11-14T02:37:33.448Z,12.50
2022-11-14T02:40:20.573Z,15.60
2022-11-14T02:43:07.356Z,11.60
2022-11-14T02:45:54.348Z,9.20
2022-11-14T02:48:41.507Z,10.70
2022-11-14T02:51:28.829Z,9.60
2022-11-14T02:54:15.706Z,10.70
2022-11-14T02:57:02.561Z,10.90
2022-11-14T02:59:49.306Z,9.40
2022-11-14T03:02:36.716Z,9.50
2022-11-14T03:05:24.155Z,9.20
2022-11-14T03:08:11.021Z,9.80
2022-11-14T03:11:07.920Z,11.30
2022-11-14T03:13:55.367Z,8.00
2022-11-14T03:16:42.181Z,6.30
2022-11-14T03:19:29.425Z,10.10
2022-11-14T03:22:16.978Z,12.50
2022-11-14T03:25:04.401Z,9.80
2022-11-14T03:27:51.444Z,8.00
2022-11-14T03:30:38.275Z,7.50
2022-11-14T03:33:25.055Z,6.40
2022-11-14T03:36:11.757Z,6.40
2022-11-14T03:38:58.682Z,6.30
2022-11-14T03:41:45.470Z,5.00
2022-11-14T03:44:32.370Z,7.40
2022-11-14T03:47:19.513Z,6.60
2022-11-14T03:50:07.093Z,8.50
2022-11-14T03:52:53.821Z,8.60
2022-11-14T03:55:40.717Z,8.40
2022-11-14T03:58:27.978Z,7.50
2022-11-14T04:01:15.417Z,7.90
2022-11-14T04:04:02.638Z,6.50
2022-11-14T04:06:50.094Z,7.40
2022-11-14T04:09:37.272Z,7.20
2022-11-14T04:12:24.350Z,11.60
2022-11-14T04:15:11.558Z,8.70
2022-11-14T04:17:58.377Z,8.70
2022-11-14T04:20:45.874Z,7.20
2022-11-14T04:23:34.684Z,6.50
2022-11-14T04:26:22.066Z,8.60
2022-11-14T04:29:09.345Z,6.90
2022-11-14T04:33:00.072Z,7.10
2022-11-14T04:35:48.346Z,7.90
2022-11-14T04:38:37.141Z,7.00
2022-11-14T04:41:24.662Z,9.10
2022-11-14T04:44:13.043Z,5.10
2022-11-14T04:47:00.580Z,7.80
2022-11-14T04:49:47.392Z,5.20
2022-11-14T04:52:35.320Z,5.50
2022-11-14T04:55:39.258Z,9.50
2022-11-14T04:58:40.355Z,6.40
2022-11-14T05:01:34.662Z,7.70
2022-11-14T05:04:22.711Z,7.20
2022-11-14T05:07:13.716Z,6.10
2022-11-14T05:10:01.453Z,5.90
2022-11-14T05:12:56.271Z,6.90
2022-11-14T05:15:44.952Z,8.20
2022-11-14T05:18:35.533Z,7.50
2022-11-14T05:21:54.650Z,9.50
2022-11-14T05:24:43.454Z,10.30
2022-11-14T05:27:30.763Z,7.00
2022-11-14T05:30:20.016Z,6.60
2022-11-14T05:33:07.819Z,7.40
2022-11-14T05:36:11.750Z,7.50
2022-11-14T05:38:59.234Z,14.00
2022-11-14T05:41:46.705Z,11.80
2022-11-14T05:44:35.528Z,11.70
2022-11-14T05:47:23.472Z,9.40
2022-11-14T05:50:10.959Z,8.10
2022-11-14T05:53:03.575Z,8.50
2022-11-14T05:56:00.280Z,9.80
2022-11-14T05:58:50.090Z,9.80
2022-11-14T06:01:37.947Z,8.40
2022-11-14T06:04:36.878Z,10.20
2022-11-14T06:07:33.056Z,12.30
2022-11-14T06:10:20.766Z,9.50
2022-11-14T06:13:09.236Z,9.40
2022-11-14T06:19:35.790Z,11.20
2022-11-14T06:22:23.650Z,11.30
2022-11-14T06:25:11.652Z,12.00
2022-11-14T06:28:04.401Z,8.30
2022-11-14T06:31:05.556Z,10.50
2022-11-14T06:33:57.420Z,10.50
2022-11-14T06:36:45.293Z,9.50
2022-11-14T06:39:34.758Z,7.60
2022-11-14T06:42:41.536Z,10.50
2022-11-14T06:45:34.754Z,9.10
2022-11-14T06:48:28.572Z,8.60
2022-11-14T06:54:58.855Z,9.90
2022-11-14T06:57:46.133Z,7.20
2022-11-14T07:00:33.363Z,8.20
2022-11-14T07:03:21.931Z,9.30
2022-11-14T07:06:13.014Z,9.70
2022-11-14T07:09:01.976Z,8.70
2022-11-14T07:11:49.413Z,6.90
2022-11-14T07:14:36.946Z,8.00
2022-11-14T07:17:28.405Z,6.60
2022-11-14T07:20:21.423Z,10.10
2022-11-14T07:23:08.981Z,10.90
2022-11-14T07:25:56.550Z,7.80
2022-11-14T07:28:51.792Z,6.40
2022-11-14T07:31:41.387Z,7.30
2022-11-14T07:34:28.461Z,26.00
2022-11-14T07:37:15.644Z,7.20
2022-11-14T07:40:02.804Z,6.70
2022-11-14T07:43:10.039Z,7.00
2022-11-14T07:46:11.482Z,11.10
2022-11-14T07:51:46.479Z,8.70
2022-11-14T07:54:43.152Z,11.90
2022-11-14T07:57:39.815Z,8.90
2022-11-14T08:00:42.502Z,5.80
2022-11-14T08:03:40.906Z,9.60
2022-11-14T08:06:32.380Z,7.60
2022-11-14T08:09:20.106Z,9.10
2022-11-14T08:12:07.480Z,11.40
2022-11-14T08:14:56.170Z,7.00
2022-11-14T08:17:45.221Z,10.90
2022-11-14T08:20:33.002Z,11.10
2022-11-14T08:23:21.153Z,8.60
2022-11-14T08:26:08.291Z,10.50
2022-11-14T08:28:56.440Z,9.80
2022-11-14T08:31:48.497Z,9.70
2022-11-14T08:34:36.944Z,12.20
2022-11-14T08:37:24.444Z,8.30
2022-11-14T08:40:35.123Z,7.20
2022-11-14T08:43:34.366Z,16.10
2022-11-14T08:46:24.545Z,9.80
2022-11-14T08:49:37.515Z,8.60
2022-11-14T08:55:33.276Z,8.00
2022-11-14T08:58:20.272Z,8.20
2022-11-14T09:01:08.078Z,13.60
2022-11-14T09:03:59.588Z,11.10
2022-11-14T09:06:49.053Z,9.30
2022-11-14T09:09:37.038Z,8.30
2022-11-14T09:12:24.750Z,10.90
2022-11-14T09:15:12.259Z,7.70
2022-11-14T09:17:59.764Z,10.10
2022-11-14T09:20:46.911Z,12.10
2022-11-14T09:23:40.018Z,9.80
2022-11-14T09:26:28.601Z,8.90
2022-11-14T09:29:21.363Z,8.80
2022-11-14T09:32:19.591Z,11.20
2022-11-14T09:35:11.739Z,11.10
2022-11-14T09:38:11.601Z,9.80
2022-11-14T09:41:52.595Z,7.80
2022-11-14T09:45:06.571Z,8.80
2022-11-14T09:48:36.302Z,11.00
2022-11-14T09:51:54.596Z,14.90
2022-11-14T09:54:53.986Z,9.50
2022-11-14T09:57:46.124Z,13.40
2022-11-14T10:00:57.703Z,10.90
2022-11-14T10:04:09.699Z,19.70
2022-11-14T10:08:07.994Z,9.50
2022-11-14T10:11:25.915Z,11.00
2022-11-14T10:15:25.806Z,10.90
2022-11-14T10:18:44.641Z,10.50
2022-11-14T10:22:02.932Z,19.30
2022-11-14T10:28:41.416Z,17.10
2022-11-14T10:31:47.815Z,14.30
2022-11-14T10:34:45.510Z,17.90
2022-11-14T10:38:04.518Z,16.50
2022-11-14T10:40:58.422Z,13.20
2022-11-14T10:43:52.126Z,11.90
2022-11-14T10:46:56.551Z,13.40
2022-11-14T10:49:46.848Z,16.80
2022-11-14T10:52:42.984Z,12.20
2022-11-14T10:56:02.418Z,19.00
2022-11-14T10:58:47.955Z,13.80
2022-11-14T11:01:41.780Z,15.10
2022-11-14T11:04:37.032Z,11.90
2022-11-14T11:07:45.647Z,9.70
2022-11-14T11:10:56.071Z,10.40
2022-11-14T11:14:19.277Z,9.50
2022-11-14T11:17:12.814Z,14.50
2022-11-14T11:20:34.706Z,15.00
2022-11-14T11:23:27.784Z,30.10
2022-11-14T11:26:33.004Z,14.80
2022-11-14T11:29:20.394Z,14.90
2022-11-14T11:32:10.197Z,14.70
2022-11-14T11:35:04.145Z,9.50
2022-11-14T11:37:57.428Z,13.30
2022-11-14T11:40:48.174Z,14.40
2022-11-14T11:44:00.482Z,10.90
2022-11-14T11:47:01.454Z,15.10
2022-11-14T11:49:53.949Z,10.20
2022-11-14T11:52:56.259Z,23.60
2022-11-14T11:55:52.493Z,11.10
2022-11-14T11:58:48.261Z,18.80
2022-11-14T12:01:35.876Z,8.50
2022-11-14T12:04:23.859Z,10.60
2022-11-14T12:07:44.190Z,9.90
2022-11-14T12:10:36.686Z,16.20
2022-11-14T12:13:54.891Z,15.80
2022-11-14T12:17:25.050Z,13.80
2022-11-14T12:20:20.739Z,10.50
2022-11-14T12:23:52.118Z,11.20
2022-11-14T12:27:50.190Z,15.90
2022-11-14T12:30:42.995Z,13.00
2022-11-14T12:34:07.065Z,11.40
2022-11-14T12:37:23.236Z,15.60
2022-11-14T12:40:31.125Z,14.50
2022-11-14T12:43:37.202Z,18.20
2022-11-14T12:46:25.264Z,12.20
2022-11-14T12:50:01.354Z,20.80
2022-11-14T12:52:53.139Z,12.90
2022-11-14T12:55:46.699Z,23.80
2022-11-14T12:59:09.623Z,17.00
2022-11-14T13:02:34.311Z,12.50
2022-11-14T13:05:49.158Z,12.10
2022-11-14T13:09:33.292Z,11.60
2022-11-14T13:13:05.596Z,18.70
2022-11-14T13:16:41.745Z,19.10
2022-11-14T13:19:48.334Z,13.70
2022-11-14T13:22:38.543Z,18.70
2022-11-14T13:25:26.262Z,19.80
2022-11-14T13:28:53.828Z,16.50
2022-11-14T13:32:06.779Z,14.00
2022-11-14T13:35:15.493Z,12.00
2022-11-14T13:38:31.942Z,13.90
2022-11-14T13:41:47.744Z,12.40
2022-11-14T13:45:37.978Z,16.10
2022-11-14T13:49:25.529Z,15.90
2022-11-14T13:52:15.564Z,13.40
2022-11-14T13:55:08.355Z,16.40
2022-11-14T13:58:54.390Z,23.30
2022-11-14T14:02:11.048Z,12.80
2022-11-14T14:05:13.687Z,15.50
2022-11-14T14:08:55.747Z,18.70
2022-11-14T14:12:04.247Z,19.30
2022-11-14T14:15:57.601Z,15.70
2022-11-14T14:19:44.425Z,16.30
2022-11-14T14:22:58.668Z,11.00
2022-11-14T14:25:59.096Z,16.90
2022-11-14T14:29:34.513Z,14.50
2022-11-14T14:32:28.023Z,17.70
2022-11-14T14:35:27.580Z,16.50
2022-11-14T14:41:44.859Z,24.10
2022-11-14T14:44:48.053Z,21.60
2022-11-14T14:47:44.024Z,21.90
2022-11-14T14:51:15.266Z,24.20
2022-11-14T14:54:41.361Z,35.50
2022-11-14T14:57:30.766Z,29.50
2022-11-14T15:00:29.001Z,33.50
2022-11-14T15:03:37.188Z,30.50
2022-11-14T15:06:34.573Z,43.20
2022-11-14T15:09:32.507Z,34.00
2022-11-14T15:12:20.237Z,32.10
2022-11-14T15:15:13.660Z,41.20
2022-11-14T15:18:07.647Z,38.30
2022-11-14T15:21:27.479Z,32.80
2022-11-14T15:24:24.137Z,34.70
2022-11-14T15:27:20.609Z,26.50
2022-11-14T15:30:22.646Z,33.20
2022-11-14T15:33:35.012Z,36.80
2022-11-14T15:36:22.764Z,26.60
2022-11-14T15:39:29.842Z,25.10
2022-11-14T15:42:29.179Z,30.00
2022-11-14T15:45:39.457Z,39.10
2022-11-14T15:48:26.663Z,32.70
2022-11-14T15:51:13.932Z,33.80
2022-11-14T15:54:27.872Z,36.20
2022-11-14T15:57:21.405Z,51.50
2022-11-14T16:00:16.346Z,39.20
2022-11-14T16:03:03.944Z,42.60
2022-11-14T16:05:51.184Z,38.80
2022-11-14T16:08:39.972Z,41.90
2022-11-14T16:11:27.389Z,41.30
2022-11-14T16:14:14.831Z,57.90
2022-11-14T16:17:02.704Z,50.10
2022-11-14T16:19:50.142Z,57.70
2022-11-14T16:22:41.587Z,61.10
2022-11-14T16:25:42.438Z,60.40
2022-11-14T16:28:29.972Z,56.00
2022-11-14T16:31:18.281Z,67.90
2022-11-14T16:35:03.951Z,58.60
2022-11-14T16:37:45.432Z,62.40
2022-11-14T16:40:32.451Z,63.80
2022-11-14T16:43:21.628Z,66.30
2022-11-14T16:46:11.743Z,60.10
2022-11-14T16:49:12.680Z,68.60
2022-11-14T16:55:51.438Z,66.40
2022-11-14T16:58:42.557Z,69.90
2022-11-14T17:02:23.464Z,76.00
2022-11-14T17:05:26.236Z,65.20
2022-11-14T17:08:46.669Z,66.50
2022-11-14T17:12:09.807Z,64.40
2022-11-14T17:15:21.105Z,68.00
2022-11-14T17:18:21.889Z,57.90
2022-11-14T17:21:13.843Z,59.90
2022-11-14T17:24:05.457Z,62.10
2022-11-14T17:26:52.662Z,59.60
2022-11-14T17:29:44.492Z,62.70
2022-11-14T17:32:31.779Z,63.90
2022-11-14T17:35:19.564Z,62.90
2022-11-14T17:38:08.035Z,69.90
2022-11-14T17:41:11.675Z,65.00
2022-11-14T17:44:02.268Z,56.90
2022-11-14T17:46:49.751Z,55.40
2022-11-14T17:49:43.713Z,58.70
2022-11-14T17:52:31.079Z,58.00
2022-11-14T17:55:43.390Z,55.20
2022-11-14T17:58:52.632Z,58.70
2022-11-14T18:01:41.000Z,53.30
2022-11-14T18:04:28.948Z,48.60
2022-11-14T18:07:16.559Z,48.90
2022-11-14T18:13:26.501Z,52.00
2022-11-14T18:17:11.777Z,53.70
2022-11-14T18:20:16.258Z,52.90
2022-11-14T18:23:04.036Z,49.80
2022-11-14T18:25:52.410Z,56.90
2022-11-14T18:28:42.594Z,51.30
2022-11-14T18:31:31.513Z,57.90
2022-11-14T18:34:22.653Z,60.70
2022-11-14T18:37:18.400Z,56.00
2022-11-14T18:40:46.982Z,52.50
2022-11-14T18:44:06.931Z,57.20
2022-11-14T18:47:03.011Z,52.50
2022-11-14T18:50:05.629Z,51.70
2022-11-14T18:52:52.747Z,62.40
2022-11-14T18:55:42.492Z,58.20
2022-11-14T18:58:49.209Z,54.90
2022-11-14T19:01:40.221Z,56.60
2022-11-14T19:04:31.932Z,55.70
2022-11-14T19:07:37.459Z,60.00
2022-11-14T19:10:27.621Z,55.40
2022-11-14T19:13:16.694Z,56.80
2022-11-14T19:16:46.122Z,58.20
2022-11-14T19:19:49.836Z,50.30
2022-11-14T19:22:47.251Z,49.30
2022-11-14T19:25:38.196Z,54.90
2022-11-14T19:28:34.704Z,57.00
2022-11-14T19:31:42.532Z,54.90
2022-11-14T19:34:40.067Z,52.30
2022-11-14T19:37:38.324Z,47.60
2022-11-14T19:40:30.377Z,49.00
2022-11-14T19:43:29.486Z,53.20
2022-11-14T19:46:28.720Z,49.50
2022-11-14T19:49:19.868Z,53.30
2022-11-14T19:52:14.064Z,58.30
2022-11-14T19:55:03.890Z,52.50
2022-11-14T19:57:50.926Z,60.10
2022-11-14T20:00:47.958Z,65.30
2022-11-14T20:03:38.263Z,67.10
2022-11-14T20:06:35.897Z,64.60
2022-11-14T20:09:23.380Z,67.40
2022-11-14T20:12:18.606Z,59.60
2022-11-14T20:15:34.339Z,60.60
2022-11-14T20:18:34.501Z,64.10
2022-11-14T20:21:25.456Z,60.60
2022-11-14T20:24:17.812Z,58.90
2022-11-14T20:27:05.012Z,57.00
2022-11-14T20:29:53.646Z,56.80
2022-11-14T20:32:41.200Z,53.90
2022-11-14T20:35:28.575Z,61.50
2022-11-14T20:38:16.010Z,54.90
2022-11-14T20:41:03.400Z,59.20
2022-11-14T20:43:56.194Z,70.20
2022-11-14T20:46:43.939Z,45.30
2022-11-14T20:49:31.105Z,75.60
2022-11-14T20:52:18.928Z,63.30
2022-11-14T20:55:11.563Z,49.10
2022-11-14T20:58:08.420Z,55.40
2022-11-14T21:01:22.176Z,61.40
2022-11-14T21:04:10.680Z,50.80
2022-11-14T21:06:58.471Z,55.20
2022-11-14T21:09:45.644Z,43.90
2022-11-14T21:12:33.190Z,60.40
2022-11-14T21:15:20.696Z,56.50
2022-11-14T21:18:08.155Z,58.50
2022-11-14T21:21:17.722Z,65.50
2022-11-14T21:24:05.763Z,53.00
2022-11-14T21:26:52.880Z,57.80
2022-11-14T21:29:40.378Z,61.20
2022-11-14T21:32:36.487Z,57.40
2022-11-14T21:35:23.710Z,53.10
2022-11-14T21:38:11.027Z,60.20
2022-11-14T21:40:58.581Z,60.40
2022-11-14T21:43:55.499Z,54.60
2022-11-14T21:46:49.961Z,59.00
2022-11-14T21:49:44.740Z,61.30
2022-11-14T21:52:39.382Z,58.20
2022-11-14T21:55:45.203Z,57.10
2022-11-14T21:58:35.878Z,56.80
2022-11-14T22:01:42.208Z,50.70
2022-11-14T22:04:39.466Z,51.50
2022-11-14T22:07:38.249Z,47.80
2022-11-14T22:10:28.531Z,47.20
2022-11-14T22:13:15.990Z,56.00
2022-11-14T22:16:21.113Z,57.30
2022-11-14T22:19:26.520Z,49.00
2022-11-14T22:22:15.599Z,47.60
2022-11-14T22:25:03.034Z,60.20
2022-11-14T22:27:50.225Z,61.30
2022-11-14T22:30:45.082Z,65.40
2022-11-14T22:33:36.203Z,46.30
2022-11-14T22:36:35.540Z,51.30
2022-11-14T22:39:36.534Z,36.10
2022-11-14T22:42:30.059Z,41.20
2022-11-14T22:45:20.346Z,41.90
2022-11-14T22:48:08.143Z,40.70
2022-11-14T22:51:21.120Z,48.50
2022-11-14T22:54:20.041Z,37.80
2022-11-14T22:57:10.324Z,40.30
2022-11-14T22:59:57.753Z,43.30
2022-11-14T23:02:49.100Z,44.40
2022-11-14T23:05:39.573Z,47.50
2022-11-14T23:08:26.899Z,38.10
2022-11-14T23:11:22.191Z,38.30
2022-11-14T23:14:14.055Z,37.90
2022-11-14T23:17:01.476Z,45.30
2022-11-14T23:19:48.737Z,38.20
2022-11-14T23:23:01.866Z,39.30
2022-11-14T23:25:49.285Z,32.10
2022-11-14T23:28:37.296Z,33.60
2022-11-14T23:31:25.255Z,42.40
2022-11-14T23:34:12.474Z,44.00
2022-11-14T23:36:59.727Z,43.70
2022-11-14T23:39:47.054Z,38.00
2022-11-14T23:42:34.438Z,34.80
2022-11-14T23:45:21.483Z,29.90
2022-11-14T23:48:08.406Z,41.50
2022-11-14T23:50:57.062Z,33.70
2022-11-14T23:53:44.107Z,39.50
2022-11-14T23:56:31.385Z,39.30
2022-11-14T23:59:18.720Z,41.50
